sensor_id;sensor_type;location;lat;lon;timestamp;temperature;humidity
17146;DHT22;8688;54.444;18.444;2022-11-03T00:01:07;9.50;99.90
17146;DHT22;8688;54.444;18.444;2022-11-03T00:03:35;9.40;99.90
17146;DHT22;8688;54.444;18.444;2022-11-03T00:06:03;9.40;99.90
17146;DHT22;8688;54.444;18.444;2022-11-03T00:08:38;9.40;99.90
17146;DHT22;8688;54.444;18.444;2022-11-03T00:11:10;9.40;99.90
17146;DHT22;8688;54.444;18.444;2022-11-03T00:13:39;9.40;99.90
17146;DHT22;8688;54.444;18.444;2022-11-03T00:16:10;9.30;99.90
17146;DHT22;8688;54.444;18.444;2022-11-03T00:18:38;9.40;99.90
17146;DHT22;8688;54.444;18.444;2022-11-03T00:21:07;9.30;99.90
17146;DHT22;8688;54.444;18.444;2022-11-03T00:23:36;9.40;99.90
17146;DHT22;8688;54.444;18.444;2022-11-03T00:26:09;9.30;99.90
17146;DHT22;8688;54.444;18.444;2022-11-03T00:28:38;9.30;99.90
17146;DHT22;8688;54.444;18.444;2022-11-03T00:31:08;9.30;99.90
17146;DHT22;8688;54.444;18.444;2022-11-03T00:33:37;9.40;99.90
17146;DHT22;8688;54.444;18.444;2022-11-03T00:36:05;9.40;99.90
17146;DHT22;8688;54.444;18.444;2022-11-03T00:38:34;9.40;99.90
17146;DHT22;8688;54.444;18.444;2022-11-03T00:41:03;9.40;99.90
17146;DHT22;8688;54.444;18.444;2022-11-03T00:43:33;9.40;99.90
17146;DHT22;8688;54.444;18.444;2022-11-03T00:46:01;9.40;99.90
17146;DHT22;8688;54.444;18.444;2022-11-03T00:48:31;9.40;99.90
17146;DHT22;8688;54.444;18.444;2022-11-03T00:51:00;9.30;99.90
17146;DHT22;8688;54.444;18.444;2022-11-03T00:53:29;9.30;99.90
17146;DHT22;8688;54.444;18.444;2022-11-03T00:55:56;9.30;99.90
17146;DHT22;8688;54.444;18.444;2022-11-03T00:58:24;9.30;99.90
17146;DHT22;8688;54.444;18.444;2022-11-03T01:00:58;9.20;99.90
17146;DHT22;8688;54.444;18.444;2022-11-03T01:03:26;9.20;99.90
17146;DHT22;8688;54.444;18.444;2022-11-03T01:05:55;9.20;99.90
17146;DHT22;8688;54.444;18.444;2022-11-03T01:08:39;9.20;99.90
17146;DHT22;8688;54.444;18.444;2022-11-03T01:11:08;9.20;99.90
17146;DHT22;8688;54.444;18.444;2022-11-03T01:13:54;9.20;99.90
17146;DHT22;8688;54.444;18.444;2022-11-03T01:16:22;9.20;99.90
17146;DHT22;8688;54.444;18.444;2022-11-03T01:18:50;9.20;99.90
17146;DHT22;8688;54.444;18.444;2022-11-03T01:21:18;9.20;99.90
17146;DHT22;8688;54.444;18.444;2022-11-03T01:23:46;9.20;99.90
17146;DHT22;8688;54.444;18.444;2022-11-03T01:26:14;9.20;99.90
17146;DHT22;8688;54.444;18.444;2022-11-03T01:28:43;9.20;99.90
17146;DHT22;8688;54.444;18.444;2022-11-03T01:31:12;9.10;99.90
17146;DHT22;8688;54.444;18.444;2022-11-03T01:33:40;9.10;99.90
17146;DHT22;8688;54.444;18.444;2022-11-03T01:36:08;9.10;99.90
17146;DHT22;8688;54.444;18.444;2022-11-03T01:38:38;9.00;99.90
17146;DHT22;8688;54.444;18.444;2022-11-03T01:41:09;9.00;99.90
17146;DHT22;8688;54.444;18.444;2022-11-03T01:43:37;9.00;99.90
17146;DHT22;8688;54.444;18.444;2022-11-03T01:46:08;9.00;99.90
17146;DHT22;8688;54.444;18.444;2022-11-03T01:48:41;9.00;99.90
17146;DHT22;8688;54.444;18.444;2022-11-03T01:51:14;8.90;99.90
17146;DHT22;8688;54.444;18.444;2022-11-03T01:53:46;8.90;99.90
17146;DHT22;8688;54.444;18.444;2022-11-03T01:56:15;8.90;99.90
17146;DHT22;8688;54.444;18.444;2022-11-03T01:58:45;8.90;99.90
17146;DHT22;8688;54.444;18.444;2022-11-03T02:01:15;8.80;99.90
17146;DHT22;8688;54.444;18.444;2022-11-03T02:03:46;8.80;99.90
17146;DHT22;8688;54.444;18.444;2022-11-03T02:06:14;8.70;99.90
17146;DHT22;8688;54.444;18.444;2022-11-03T02:08:47;8.70;99.90
17146;DHT22;8688;54.444;18.444;2022-11-03T02:11:15;8.70;99.90
17146;DHT22;8688;54.444;18.444;2022-11-03T02:14:00;8.80;99.90
17146;DHT22;8688;54.444;18.444;2022-11-03T02:16:28;8.80;99.90
17146;DHT22;8688;54.444;18.444;2022-11-03T02:18:57;8.90;99.90
17146;DHT22;8688;54.444;18.444;2022-11-03T02:21:29;8.90;99.90
17146;DHT22;8688;54.444;18.444;2022-11-03T02:24:05;9.00;99.90
17146;DHT22;8688;54.444;18.444;2022-11-03T02:26:37;9.00;99.90
17146;DHT22;8688;54.444;18.444;2022-11-03T02:29:05;9.00;99.90
17146;DHT22;8688;54.444;18.444;2022-11-03T02:31:36;9.00;99.90
17146;DHT22;8688;54.444;18.444;2022-11-03T02:34:09;9.00;99.90
17146;DHT22;8688;54.444;18.444;2022-11-03T02:36:42;9.00;99.90
17146;DHT22;8688;54.444;18.444;2022-11-03T02:39:14;9.00;99.90
17146;DHT22;8688;54.444;18.444;2022-11-03T02:41:46;9.00;99.90
17146;DHT22;8688;54.444;18.444;2022-11-03T02:44:16;9.00;99.90
17146;DHT22;8688;54.444;18.444;2022-11-03T02:46:46;9.00;99.90
17146;DHT22;8688;54.444;18.444;2022-11-03T02:49:14;9.00;99.90
17146;DHT22;8688;54.444;18.444;2022-11-03T02:51:42;9.00;99.90
17146;DHT22;8688;54.444;18.444;2022-11-03T02:54:15;9.00;99.90
17146;DHT22;8688;54.444;18.444;2022-11-03T02:56:49;9.00;99.90
17146;DHT22;8688;54.444;18.444;2022-11-03T02:59:21;9.00;99.90
17146;DHT22;8688;54.444;18.444;2022-11-03T03:01:53;8.90;99.90
17146;DHT22;8688;54.444;18.444;2022-11-03T03:04:27;8.90;99.90
17146;DHT22;8688;54.444;18.444;2022-11-03T03:06:59;8.80;99.90
17146;DHT22;8688;54.444;18.444;2022-11-03T03:09:31;8.80;99.90
17146;DHT22;8688;54.444;18.444;2022-11-03T03:12:02;8.80;99.90
17146;DHT22;8688;54.444;18.444;2022-11-03T03:14:33;8.80;99.90
17146;DHT22;8688;54.444;18.444;2022-11-03T03:17:04;8.80;99.90
17146;DHT22;8688;54.444;18.444;2022-11-03T03:19:43;8.80;99.90
17146;DHT22;8688;54.444;18.444;2022-11-03T03:22:22;8.80;99.90
17146;DHT22;8688;54.444;18.444;2022-11-03T03:24:54;8.80;99.90
17146;DHT22;8688;54.444;18.444;2022-11-03T03:27:29;8.70;99.90
17146;DHT22;8688;54.444;18.444;2022-11-03T03:30:00;8.70;99.90
17146;DHT22;8688;54.444;18.444;2022-11-03T03:32:30;8.70;99.90
17146;DHT22;8688;54.444;18.444;2022-11-03T03:34:59;8.70;99.90
17146;DHT22;8688;54.444;18.444;2022-11-03T03:37:28;8.70;99.90
17146;DHT22;8688;54.444;18.444;2022-11-03T03:39:59;8.80;99.90
17146;DHT22;8688;54.444;18.444;2022-11-03T03:42:31;8.80;99.90
17146;DHT22;8688;54.444;18.444;2022-11-03T03:45:00;8.80;99.90
17146;DHT22;8688;54.444;18.444;2022-11-03T03:47:29;8.80;99.90
17146;DHT22;8688;54.444;18.444;2022-11-03T03:49:58;8.80;99.90
17146;DHT22;8688;54.444;18.444;2022-11-03T03:52:26;8.80;99.90
17146;DHT22;8688;54.444;18.444;2022-11-03T03:54:55;8.80;99.90
17146;DHT22;8688;54.444;18.444;2022-11-03T03:57:23;8.80;99.90
17146;DHT22;8688;54.444;18.444;2022-11-03T03:59:52;8.90;99.90
17146;DHT22;8688;54.444;18.444;2022-11-03T04:02:20;8.90;99.90
17146;DHT22;8688;54.444;18.444;2022-11-03T04:04:47;8.90;99.90
17146;DHT22;8688;54.444;18.444;2022-11-03T04:07:15;8.90;99.90
17146;DHT22;8688;54.444;18.444;2022-11-03T04:09:59;8.90;99.90
17146;DHT22;8688;54.444;18.444;2022-11-03T04:12:27;8.90;99.90
17146;DHT22;8688;54.444;18.444;2022-11-03T04:15:13;8.90;99.90
17146;DHT22;8688;54.444;18.444;2022-11-03T04:17:58;8.90;99.90
17146;DHT22;8688;54.444;18.444;2022-11-03T04:20:43;8.80;99.90
17146;DHT22;8688;54.444;18.444;2022-11-03T04:23:27;8.80;99.90
17146;DHT22;8688;54.444;18.444;2022-11-03T04:25:56;8.70;99.90
17146;DHT22;8688;54.444;18.444;2022-11-03T04:28:23;8.70;99.90
17146;DHT22;8688;54.444;18.444;2022-11-03T04:30:55;8.70;99.90
17146;DHT22;8688;54.444;18.444;2022-11-03T04:33:24;8.60;99.90
17146;DHT22;8688;54.444;18.444;2022-11-03T04:35:52;8.70;99.90
17146;DHT22;8688;54.444;18.444;2022-11-03T04:38:22;8.60;99.90
17146;DHT22;8688;54.444;18.444;2022-11-03T04:40:55;8.60;99.90
17146;DHT22;8688;54.444;18.444;2022-11-03T04:43:29;8.60;99.90
17146;DHT22;8688;54.444;18.444;2022-11-03T04:45:59;8.60;99.90
17146;DHT22;8688;54.444;18.444;2022-11-03T04:48:27;8.50;99.90
17146;DHT22;8688;54.444;18.444;2022-11-03T04:50:57;8.50;99.90
17146;DHT22;8688;54.444;18.444;2022-11-03T04:53:29;8.50;99.90
17146;DHT22;8688;54.444;18.444;2022-11-03T04:55:58;8.40;99.90
17146;DHT22;8688;54.444;18.444;2022-11-03T04:58:29;8.30;99.90
17146;DHT22;8688;54.444;18.444;2022-11-03T05:01:00;8.30;99.90
17146;DHT22;8688;54.444;18.444;2022-11-03T05:03:31;8.20;99.90
17146;DHT22;8688;54.444;18.444;2022-11-03T05:06:01;8.20;99.90
17146;DHT22;8688;54.444;18.444;2022-11-03T05:08:35;8.10;99.90
17146;DHT22;8688;54.444;18.444;2022-11-03T05:11:11;8.10;99.90
17146;DHT22;8688;54.444;18.444;2022-11-03T05:13:40;8.00;99.90
17146;DHT22;8688;54.444;18.444;2022-11-03T05:16:11;7.90;99.90
17146;DHT22;8688;54.444;18.444;2022-11-03T05:18:41;7.90;99.90
17146;DHT22;8688;54.444;18.444;2022-11-03T05:21:11;7.80;99.90
17146;DHT22;8688;54.444;18.444;2022-11-03T05:23:41;7.70;99.90
17146;DHT22;8688;54.444;18.444;2022-11-03T05:26:13;7.60;99.90
17146;DHT22;8688;54.444;18.444;2022-11-03T05:28:44;7.60;99.90
17146;DHT22;8688;54.444;18.444;2022-11-03T05:31:21;7.50;99.90
17146;DHT22;8688;54.444;18.444;2022-11-03T05:33:51;7.40;99.90
17146;DHT22;8688;54.444;18.444;2022-11-03T05:36:20;7.30;99.90
17146;DHT22;8688;54.444;18.444;2022-11-03T05:38:49;7.10;99.90
17146;DHT22;8688;54.444;18.444;2022-11-03T05:41:21;7.10;99.90
17146;DHT22;8688;54.444;18.444;2022-11-03T05:43:56;7.00;99.90
17146;DHT22;8688;54.444;18.444;2022-11-03T05:46:26;7.00;99.90
17146;DHT22;8688;54.444;18.444;2022-11-03T05:48:54;6.90;99.90
17146;DHT22;8688;54.444;18.444;2022-11-03T05:51:24;6.90;99.90
17146;DHT22;8688;54.444;18.444;2022-11-03T05:53:57;6.90;99.90
17146;DHT22;8688;54.444;18.444;2022-11-03T05:56:25;6.80;99.90
17146;DHT22;8688;54.444;18.444;2022-11-03T05:58:55;6.80;99.90
17146;DHT22;8688;54.444;18.444;2022-11-03T06:01:27;6.80;99.90
17146;DHT22;8688;54.444;18.444;2022-11-03T06:03:55;6.70;99.90
17146;DHT22;8688;54.444;18.444;2022-11-03T06:06:26;6.70;99.90
17146;DHT22;8688;54.444;18.444;2022-11-03T06:08:55;6.60;99.90
17146;DHT22;8688;54.444;18.444;2022-11-03T06:11:26;6.60;99.90
17146;DHT22;8688;54.444;18.444;2022-11-03T06:13:55;6.60;99.90
17146;DHT22;8688;54.444;18.444;2022-11-03T06:16:37;6.50;99.90
17146;DHT22;8688;54.444;18.444;2022-11-03T06:19:19;6.50;99.90
17146;DHT22;8688;54.444;18.444;2022-11-03T06:21:48;6.40;99.90
17146;DHT22;8688;54.444;18.444;2022-11-03T06:24:17;6.40;99.90
17146;DHT22;8688;54.444;18.444;2022-11-03T06:26:46;6.40;99.90
17146;DHT22;8688;54.444;18.444;2022-11-03T06:29:17;6.40;99.90
17146;DHT22;8688;54.444;18.444;2022-11-03T06:31:47;6.30;99.90
17146;DHT22;8688;54.444;18.444;2022-11-03T06:34:30;6.20;99.90
17146;DHT22;8688;54.444;18.444;2022-11-03T06:37:05;6.20;99.90
17146;DHT22;8688;54.444;18.444;2022-11-03T06:39:36;6.20;99.90
17146;DHT22;8688;54.444;18.444;2022-11-03T06:42:14;6.30;99.90
17146;DHT22;8688;54.444;18.444;2022-11-03T06:44:43;6.30;99.90
17146;DHT22;8688;54.444;18.444;2022-11-03T06:47:31;6.30;99.90
17146;DHT22;8688;54.444;18.444;2022-11-03T06:49:59;6.30;99.90
17146;DHT22;8688;54.444;18.444;2022-11-03T06:52:28;6.40;99.90
17146;DHT22;8688;54.444;18.444;2022-11-03T06:55:12;6.40;99.90
17146;DHT22;8688;54.444;18.444;2022-11-03T06:57:43;6.40;99.90
17146;DHT22;8688;54.444;18.444;2022-11-03T07:00:16;6.40;99.90
17146;DHT22;8688;54.444;18.444;2022-11-03T07:02:53;6.50;99.90
17146;DHT22;8688;54.444;18.444;2022-11-03T07:05:24;6.50;99.90
17146;DHT22;8688;54.444;18.444;2022-11-03T07:07:53;6.50;99.90
17146;DHT22;8688;54.444;18.444;2022-11-03T07:10:25;6.50;99.90
17146;DHT22;8688;54.444;18.444;2022-11-03T07:12:54;6.50;99.90
17146;DHT22;8688;54.444;18.444;2022-11-03T07:15:27;6.50;99.90
17146;DHT22;8688;54.444;18.444;2022-11-03T07:17:59;6.50;99.90
17146;DHT22;8688;54.444;18.444;2022-11-03T07:20:27;6.60;99.90
17146;DHT22;8688;54.444;18.444;2022-11-03T07:22:56;6.60;99.90
17146;DHT22;8688;54.444;18.444;2022-11-03T07:25:26;6.60;99.90
17146;DHT22;8688;54.444;18.444;2022-11-03T07:27:54;6.60;99.90
17146;DHT22;8688;54.444;18.444;2022-11-03T07:30:25;6.70;99.90
17146;DHT22;8688;54.444;18.444;2022-11-03T07:33:01;6.70;99.90
17146;DHT22;8688;54.444;18.444;2022-11-03T07:35:36;6.80;99.90
17146;DHT22;8688;54.444;18.444;2022-11-03T07:38:10;6.80;99.90
17146;DHT22;8688;54.444;18.444;2022-11-03T07:40:37;6.90;99.90
17146;DHT22;8688;54.444;18.444;2022-11-03T07:43:13;6.90;99.90
17146;DHT22;8688;54.444;18.444;2022-11-03T07:45:47;7.00;99.90
17146;DHT22;8688;54.444;18.444;2022-11-03T07:48:21;7.00;99.90
17146;DHT22;8688;54.444;18.444;2022-11-03T07:50:50;7.10;99.90
17146;DHT22;8688;54.444;18.444;2022-11-03T07:53:21;7.10;99.90
17146;DHT22;8688;54.444;18.444;2022-11-03T07:55:52;7.20;99.90
17146;DHT22;8688;54.444;18.444;2022-11-03T07:58:23;7.20;99.90
17146;DHT22;8688;54.444;18.444;2022-11-03T08:00:55;7.20;99.90
17146;DHT22;8688;54.444;18.444;2022-11-03T08:03:41;7.30;99.90
17146;DHT22;8688;54.444;18.444;2022-11-03T08:06:10;7.40;99.90
17146;DHT22;8688;54.444;18.444;2022-11-03T08:08:37;7.40;99.90
17146;DHT22;8688;54.444;18.444;2022-11-03T08:11:06;7.50;99.90
17146;DHT22;8688;54.444;18.444;2022-11-03T08:13:33;7.60;99.90
17146;DHT22;8688;54.444;18.444;2022-11-03T08:16:01;7.60;99.90
17146;DHT22;8688;54.444;18.444;2022-11-03T08:18:28;7.70;99.90
17146;DHT22;8688;54.444;18.444;2022-11-03T08:20:57;7.70;99.90
17146;DHT22;8688;54.444;18.444;2022-11-03T08:23:25;7.80;99.90
17146;DHT22;8688;54.444;18.444;2022-11-03T08:25:52;7.80;99.90
17146;DHT22;8688;54.444;18.444;2022-11-03T08:28:19;7.90;99.90
17146;DHT22;8688;54.444;18.444;2022-11-03T08:30:47;7.90;99.90
17146;DHT22;8688;54.444;18.444;2022-11-03T08:33:17;8.00;99.90
17146;DHT22;8688;54.444;18.444;2022-11-03T08:35:44;8.00;99.90
17146;DHT22;8688;54.444;18.444;2022-11-03T08:38:13;8.10;99.90
17146;DHT22;8688;54.444;18.444;2022-11-03T08:40:40;8.20;99.90
17146;DHT22;8688;54.444;18.444;2022-11-03T08:43:08;8.20;99.90
17146;DHT22;8688;54.444;18.444;2022-11-03T08:45:35;8.30;99.90
17146;DHT22;8688;54.444;18.444;2022-11-03T08:48:02;8.40;99.90
17146;DHT22;8688;54.444;18.444;2022-11-03T08:50:30;8.40;99.90
17146;DHT22;8688;54.444;18.444;2022-11-03T08:52:57;8.40;99.90
17146;DHT22;8688;54.444;18.444;2022-11-03T08:55:26;8.50;99.90
17146;DHT22;8688;54.444;18.444;2022-11-03T08:57:53;8.60;99.90
17146;DHT22;8688;54.444;18.444;2022-11-03T09:00:21;8.70;99.90
17146;DHT22;8688;54.444;18.444;2022-11-03T09:02:48;8.80;99.90
17146;DHT22;8688;54.444;18.444;2022-11-03T09:05:16;8.90;99.90
17146;DHT22;8688;54.444;18.444;2022-11-03T09:07:43;8.90;99.90
17146;DHT22;8688;54.444;18.444;2022-11-03T09:10:11;9.00;99.90
17146;DHT22;8688;54.444;18.444;2022-11-03T09:12:39;9.10;99.90
17146;DHT22;8688;54.444;18.444;2022-11-03T09:15:08;9.20;99.90
17146;DHT22;8688;54.444;18.444;2022-11-03T09:17:35;9.20;99.90
17146;DHT22;8688;54.444;18.444;2022-11-03T09:20:03;9.30;99.90
17146;DHT22;8688;54.444;18.444;2022-11-03T09:22:31;9.40;99.90
17146;DHT22;8688;54.444;18.444;2022-11-03T09:24:58;9.50;99.90
17146;DHT22;8688;54.444;18.444;2022-11-03T09:27:25;9.60;99.90
17146;DHT22;8688;54.444;18.444;2022-11-03T09:29:54;9.70;99.90
17146;DHT22;8688;54.444;18.444;2022-11-03T09:32:22;9.70;99.90
17146;DHT22;8688;54.444;18.444;2022-11-03T09:34:49;9.80;99.90
17146;DHT22;8688;54.444;18.444;2022-11-03T09:37:16;9.80;99.90
17146;DHT22;8688;54.444;18.444;2022-11-03T09:39:44;9.90;99.90
17146;DHT22;8688;54.444;18.444;2022-11-03T09:42:11;9.90;99.90
17146;DHT22;8688;54.444;18.444;2022-11-03T09:44:39;10.00;99.90
17146;DHT22;8688;54.444;18.444;2022-11-03T09:47:14;10.10;99.90
17146;DHT22;8688;54.444;18.444;2022-11-03T09:49:44;10.20;99.90
17146;DHT22;8688;54.444;18.444;2022-11-03T09:52:16;10.20;36.10
17146;DHT22;8688;54.444;18.444;2022-11-03T09:54:46;10.30;7.70
17146;DHT22;8688;54.444;18.444;2022-11-03T09:57:14;10.30;10.50
17146;DHT22;8688;54.444;18.444;2022-11-03T09:59:44;10.40;24.40
17146;DHT22;8688;54.444;18.444;2022-11-03T10:02:21;10.50;24.40
17146;DHT22;8688;54.444;18.444;2022-11-03T10:04:52;10.50;1.00
17146;DHT22;8688;54.444;18.444;2022-11-03T10:07:20;10.60;1.00
17146;DHT22;8688;54.444;18.444;2022-11-03T10:09:50;10.60;1.00
17146;DHT22;8688;54.444;18.444;2022-11-03T10:12:19;10.70;1.00
17146;DHT22;8688;54.444;18.444;2022-11-03T10:14:47;10.70;1.00
17146;DHT22;8688;54.444;18.444;2022-11-03T10:17:17;10.70;1.00
17146;DHT22;8688;54.444;18.444;2022-11-03T10:19:48;10.80;1.00
17146;DHT22;8688;54.444;18.444;2022-11-03T10:22:17;10.90;1.00
17146;DHT22;8688;54.444;18.444;2022-11-03T10:24:45;11.00;1.00
17146;DHT22;8688;54.444;18.444;2022-11-03T10:27:20;11.00;1.00
17146;DHT22;8688;54.444;18.444;2022-11-03T10:30:04;11.00;1.00
17146;DHT22;8688;54.444;18.444;2022-11-03T10:32:34;11.00;1.00
17146;DHT22;8688;54.444;18.444;2022-11-03T10:35:08;11.00;1.00
17146;DHT22;8688;54.444;18.444;2022-11-03T10:37:51;11.00;1.00
17146;DHT22;8688;54.444;18.444;2022-11-03T10:40:35;11.00;1.00
17146;DHT22;8688;54.444;18.444;2022-11-03T10:43:03;11.10;99.90
17146;DHT22;8688;54.444;18.444;2022-11-03T10:45:30;11.10;99.90
17146;DHT22;8688;54.444;18.444;2022-11-03T10:48:04;11.20;99.90
17146;DHT22;8688;54.444;18.444;2022-11-03T10:50:33;11.20;1.00
17146;DHT22;8688;54.444;18.444;2022-11-03T10:53:02;11.20;99.90
17146;DHT22;8688;54.444;18.444;2022-11-03T10:55:29;11.30;1.00
17146;DHT22;8688;54.444;18.444;2022-11-03T10:57:57;11.30;99.90
17146;DHT22;8688;54.444;18.444;2022-11-03T11:00:25;11.30;1.00
17146;DHT22;8688;54.444;18.444;2022-11-03T11:02:56;11.30;99.90
17146;DHT22;8688;54.444;18.444;2022-11-03T11:05:26;11.30;99.90
17146;DHT22;8688;54.444;18.444;2022-11-03T11:07:54;11.30;99.90
17146;DHT22;8688;54.444;18.444;2022-11-03T11:10:22;11.30;99.90
17146;DHT22;8688;54.444;18.444;2022-11-03T11:13:24;11.30;99.90
17146;DHT22;8688;54.444;18.444;2022-11-03T11:15:53;11.30;99.90
17146;DHT22;8688;54.444;18.444;2022-11-03T11:22:13;11.30;27.60
17146;DHT22;8688;54.444;18.444;2022-11-03T11:25:00;11.30;69.00
17146;DHT22;8688;54.444;18.444;2022-11-03T11:27:54;11.30;59.60
17146;DHT22;8688;54.444;18.444;2022-11-03T11:33:31;11.40;71.00
17146;DHT22;8688;54.444;18.444;2022-11-03T11:36:08;11.40;15.50
17146;DHT22;8688;54.444;18.444;2022-11-03T11:38:54;11.50;74.60
17146;DHT22;8688;54.444;18.444;2022-11-03T11:42:10;11.50;1.00
17146;DHT22;8688;54.444;18.444;2022-11-03T11:44:52;11.50;1.00
17146;DHT22;8688;54.444;18.444;2022-11-03T11:47:27;11.50;1.00
17146;DHT22;8688;54.444;18.444;2022-11-03T11:50:15;11.60;7.10
17146;DHT22;8688;54.444;18.444;2022-11-03T11:52:44;11.60;27.50
17146;DHT22;8688;54.444;18.444;2022-11-03T11:55:18;11.70;6.80
17146;DHT22;8688;54.444;18.444;2022-11-03T11:57:48;11.70;1.00
17146;DHT22;8688;54.444;18.444;2022-11-03T12:00:18;11.70;1.00
17146;DHT22;8688;54.444;18.444;2022-11-03T12:02:47;11.60;1.00
17146;DHT22;8688;54.444;18.444;2022-11-03T12:05:20;11.70;1.00
17146;DHT22;8688;54.444;18.444;2022-11-03T12:07:48;11.70;1.00
17146;DHT22;8688;54.444;18.444;2022-11-03T12:10:18;11.70;1.00
17146;DHT22;8688;54.444;18.444;2022-11-03T12:12:47;11.70;1.00
17146;DHT22;8688;54.444;18.444;2022-11-03T12:15:53;11.70;1.00
17146;DHT22;8688;54.444;18.444;2022-11-03T12:18:31;11.80;1.00
17146;DHT22;8688;54.444;18.444;2022-11-03T12:20:59;11.70;1.00
17146;DHT22;8688;54.444;18.444;2022-11-03T12:23:39;11.70;1.00
17146;DHT22;8688;54.444;18.444;2022-11-03T12:26:16;11.70;1.00
17146;DHT22;8688;54.444;18.444;2022-11-03T12:28:44;11.70;1.00
17146;DHT22;8688;54.444;18.444;2022-11-03T12:31:12;11.70;1.00
17146;DHT22;8688;54.444;18.444;2022-11-03T12:33:39;11.80;1.00
17146;DHT22;8688;54.444;18.444;2022-11-03T12:36:07;11.80;1.00
17146;DHT22;8688;54.444;18.444;2022-11-03T12:38:35;11.80;1.00
17146;DHT22;8688;54.444;18.444;2022-11-03T12:41:02;11.80;1.00
17146;DHT22;8688;54.444;18.444;2022-11-03T12:43:45;11.80;1.00
17146;DHT22;8688;54.444;18.444;2022-11-03T12:46:13;11.80;1.00
17146;DHT22;8688;54.444;18.444;2022-11-03T12:48:40;11.90;1.00
17146;DHT22;8688;54.444;18.444;2022-11-03T12:51:10;11.80;1.00
17146;DHT22;8688;54.444;18.444;2022-11-03T12:53:38;11.80;1.00
17146;DHT22;8688;54.444;18.444;2022-11-03T12:56:07;11.90;1.00
17146;DHT22;8688;54.444;18.444;2022-11-03T12:58:35;11.90;1.00
17146;DHT22;8688;54.444;18.444;2022-11-03T13:01:05;11.90;1.00
17146;DHT22;8688;54.444;18.444;2022-11-03T13:03:33;11.90;1.00
17146;DHT22;8688;54.444;18.444;2022-11-03T13:06:01;11.90;1.00
17146;DHT22;8688;54.444;18.444;2022-11-03T13:08:29;11.80;1.00
17146;DHT22;8688;54.444;18.444;2022-11-03T13:10:57;11.90;1.00
17146;DHT22;8688;54.444;18.444;2022-11-03T13:13:24;11.90;1.00
17146;DHT22;8688;54.444;18.444;2022-11-03T13:15:53;11.80;1.00
17146;DHT22;8688;54.444;18.444;2022-11-03T13:18:22;11.90;1.00
17146;DHT22;8688;54.444;18.444;2022-11-03T13:20:49;11.90;1.00
17146;DHT22;8688;54.444;18.444;2022-11-03T13:23:16;11.90;1.00
17146;DHT22;8688;54.444;18.444;2022-11-03T13:25:44;11.80;1.00
17146;DHT22;8688;54.444;18.444;2022-11-03T13:28:11;11.80;1.00
17146;DHT22;8688;54.444;18.444;2022-11-03T13:30:39;11.90;1.00
17146;DHT22;8688;54.444;18.444;2022-11-03T13:33:06;11.90;1.00
17146;DHT22;8688;54.444;18.444;2022-11-03T13:35:35;11.80;1.00
17146;DHT22;8688;54.444;18.444;2022-11-03T13:38:02;11.80;1.00
17146;DHT22;8688;54.444;18.444;2022-11-03T13:40:30;11.70;1.00
17146;DHT22;8688;54.444;18.444;2022-11-03T13:42:57;11.70;1.00
17146;DHT22;8688;54.444;18.444;2022-11-03T13:45:24;11.70;1.00
17146;DHT22;8688;54.444;18.444;2022-11-03T13:47:52;11.70;1.00
17146;DHT22;8688;54.444;18.444;2022-11-03T13:50:19;11.60;1.00
17146;DHT22;8688;54.444;18.444;2022-11-03T13:52:48;11.50;1.00
17146;DHT22;8688;54.444;18.444;2022-11-03T13:55:16;11.50;1.00
17146;DHT22;8688;54.444;18.444;2022-11-03T13:57:43;11.40;1.00
17146;DHT22;8688;54.444;18.444;2022-11-03T14:00:12;11.30;1.00
17146;DHT22;8688;54.444;18.444;2022-11-03T14:02:41;11.30;1.00
17146;DHT22;8688;54.444;18.444;2022-11-03T14:05:09;11.30;1.00
17146;DHT22;8688;54.444;18.444;2022-11-03T14:07:38;11.20;1.00
17146;DHT22;8688;54.444;18.444;2022-11-03T14:10:08;11.10;1.00
17146;DHT22;8688;54.444;18.444;2022-11-03T14:12:36;11.00;1.00
17146;DHT22;8688;54.444;18.444;2022-11-03T14:15:04;11.00;1.00
17146;DHT22;8688;54.444;18.444;2022-11-03T14:17:32;10.90;1.00
17146;DHT22;8688;54.444;18.444;2022-11-03T14:19:59;10.90;1.00
17146;DHT22;8688;54.444;18.444;2022-11-03T14:22:28;10.80;1.00
17146;DHT22;8688;54.444;18.444;2022-11-03T14:24:56;10.80;1.00
17146;DHT22;8688;54.444;18.444;2022-11-03T14:27:25;10.70;1.00
17146;DHT22;8688;54.444;18.444;2022-11-03T14:29:52;10.60;1.00
17146;DHT22;8688;54.444;18.444;2022-11-03T14:32:20;10.60;88.20
17146;DHT22;8688;54.444;18.444;2022-11-03T14:34:47;10.50;99.90
17146;DHT22;8688;54.444;18.444;2022-11-03T14:37:15;10.40;99.90
17146;DHT22;8688;54.444;18.444;2022-11-03T14:39:42;10.40;99.90
17146;DHT22;8688;54.444;18.444;2022-11-03T14:42:12;10.20;99.90
17146;DHT22;8688;54.444;18.444;2022-11-03T14:44:42;10.20;1.00
17146;DHT22;8688;54.444;18.444;2022-11-03T14:47:10;10.10;1.00
17146;DHT22;8688;54.444;18.444;2022-11-03T14:49:38;10.00;1.00
17146;DHT22;8688;54.444;18.444;2022-11-03T14:52:06;9.90;99.90
17146;DHT22;8688;54.444;18.444;2022-11-03T14:54:34;9.80;99.90
17146;DHT22;8688;54.444;18.444;2022-11-03T14:57:01;9.70;1.00
17146;DHT22;8688;54.444;18.444;2022-11-03T14:59:29;9.60;99.90
17146;DHT22;8688;54.444;18.444;2022-11-03T15:01:59;9.50;1.00
17146;DHT22;8688;54.444;18.444;2022-11-03T15:04:26;9.40;1.00
17146;DHT22;8688;54.444;18.444;2022-11-03T15:06:54;9.40;86.30
17146;DHT22;8688;54.444;18.444;2022-11-03T15:09:21;9.30;1.00
17146;DHT22;8688;54.444;18.444;2022-11-03T15:11:49;9.20;99.90
17146;DHT22;8688;54.444;18.444;2022-11-03T15:14:16;9.10;1.00
17146;DHT22;8688;54.444;18.444;2022-11-03T15:16:44;9.00;48.40
17146;DHT22;8688;54.444;18.444;2022-11-03T15:19:12;9.00;99.90
17146;DHT22;8688;54.444;18.444;2022-11-03T15:21:40;8.90;99.90
17146;DHT22;8688;54.444;18.444;2022-11-03T15:24:07;8.80;12.80
17146;DHT22;8688;54.444;18.444;2022-11-03T15:26:35;8.70;1.00
17146;DHT22;8688;54.444;18.444;2022-11-03T15:29:02;8.60;99.90
17146;DHT22;8688;54.444;18.444;2022-11-03T15:31:29;8.60;99.90
17146;DHT22;8688;54.444;18.444;2022-11-03T15:33:57;8.50;99.90
17146;DHT22;8688;54.444;18.444;2022-11-03T15:36:25;8.50;99.90
17146;DHT22;8688;54.444;18.444;2022-11-03T15:38:53;8.40;1.00
17146;DHT22;8688;54.444;18.444;2022-11-03T15:41:20;8.40;1.00
17146;DHT22;8688;54.444;18.444;2022-11-03T15:43:48;8.30;1.00
17146;DHT22;8688;54.444;18.444;2022-11-03T15:46:17;8.30;99.90
17146;DHT22;8688;54.444;18.444;2022-11-03T16:10:18;7.80;1.00
17146;DHT22;8688;54.444;18.444;2022-11-03T16:12:47;7.80;1.00
17146;DHT22;8688;54.444;18.444;2022-11-03T16:15:15;7.80;1.00
17146;DHT22;8688;54.444;18.444;2022-11-03T16:17:43;7.70;1.00
17146;DHT22;8688;54.444;18.444;2022-11-03T16:20:11;7.70;1.00
17146;DHT22;8688;54.444;18.444;2022-11-03T16:22:38;7.70;1.00
17146;DHT22;8688;54.444;18.444;2022-11-03T16:25:06;7.60;26.90
17146;DHT22;8688;54.444;18.444;2022-11-03T16:27:35;7.60;34.40
17146;DHT22;8688;54.444;18.444;2022-11-03T16:30:03;7.60;63.60
17146;DHT22;8688;54.444;18.444;2022-11-03T16:32:30;7.50;99.90
17146;DHT22;8688;54.444;18.444;2022-11-03T16:35:13;7.50;99.90